Anchor Bay, California
Current Conditions -  °F | °C
As of 4:12 AM on Sunday 21 Dec 2014 (Local Time) from KUKI Reporting Station
Light Rain Light Rain  
Wind Chill: 54°   Ceiling: 400
Heat Index: 54°   Visibility: 4mi
Dew Point: 52°   Wind: 0mph
Humidity: 93%   Direction: NA
Pressure: 30.25"   Gusts: NA
Location:  38.8361°N, 123.43°W
Report Text: KUKI 211212Z AUTO 00000KT 4SM -RA BR BKN004 OVC007 12/11 A3025 RMK AO2 RAB03 P0001 T01220111
Loading
Personal Weather Stations






























Interactive Weather Map New forecast layout! Learn more

10-Day Weather Forecast

Advertisements
Track Severe Weather on mobile